createdAt,value
2017-10-09T00:00:32.706Z,77.26
2017-10-09T00:01:32.721Z,77.93
2017-10-09T00:02:33.059Z,77.83
2017-10-09T00:03:33.074Z,77.45
2017-10-09T00:04:33.089Z,77.26
2017-10-09T00:05:32.793Z,77.83
2017-10-09T00:06:33.144Z,77.26
2017-10-09T00:07:32.820Z,77.74
2017-10-09T00:08:33.157Z,77.55
2017-10-09T00:09:33.173Z,78.03
2017-10-09T00:10:32.868Z,77.55
2017-10-09T00:11:32.882Z,77.64
2017-10-09T00:12:33.219Z,77.26
2017-10-09T00:13:32.917Z,77.17
2017-10-09T00:14:32.929Z,77.26
2017-10-09T00:15:33.267Z,77.74
2017-10-09T00:16:33.283Z,77.55
2017-10-09T00:17:33.297Z,77.83
2017-10-09T00:18:33.314Z,77.7
2017-10-09T00:19:33.007Z,77.26
2017-10-09T00:20:33.348Z,78.03
2017-10-09T00:21:33.362Z,77.89
2017-10-09T00:22:33.053Z,77.51
2017-10-09T00:23:33.069Z,77.98
2017-10-09T00:24:33.086Z,77.61
2017-10-09T00:25:33.420Z,77.98
2017-10-09T00:26:33.116Z,77.64
2017-10-09T00:27:33.453Z,77.7
2017-10-09T00:28:33.470Z,77.26
2017-10-09T00:29:33.485Z,77.98
2017-10-09T00:30:33.176Z,77.55
2017-10-09T00:31:33.195Z,78.27
2017-10-09T00:32:33.533Z,77.45
2017-10-09T00:33:33.223Z,78.22
2017-10-09T00:34:33.563Z,77.51
2017-10-09T00:35:33.257Z,78.17
2017-10-09T00:36:33.593Z,77.61
2017-10-09T00:37:33.285Z,78.08
2017-10-09T00:38:33.302Z,78.17
2017-10-09T00:39:33.637Z,77.61
2017-10-09T00:40:33.332Z,78.17
2017-10-09T00:41:33.349Z,77.61
2017-10-09T00:42:33.687Z,77.32
2017-10-09T00:43:33.378Z,77.51
2017-10-09T00:44:33.396Z,77.51
2017-10-09T00:45:33.411Z,77.8
2017-10-09T00:46:33.747Z,77.8
2017-10-09T00:47:33.762Z,77.89
2017-10-09T00:48:33.777Z,77.7
2017-10-09T00:49:33.472Z,77.7
2017-10-09T00:50:33.488Z,77.22
2017-10-09T00:51:33.824Z,77.32
2017-10-09T00:52:33.842Z,77.7
2017-10-09T00:53:33.855Z,77.13
2017-10-09T00:54:33.872Z,77.22
2017-10-09T00:55:33.885Z,77.98
2017-10-09T00:56:33.905Z,77.61
2017-10-09T00:57:33.596Z,77.98
2017-10-09T00:58:33.610Z,78.08
2017-10-09T00:59:33.949Z,77.98
2017-10-09T01:00:33.968Z,78.27
2017-10-09T01:01:33.981Z,77.61
2017-10-09T01:02:33.672Z,77.61
2017-10-09T01:03:34.013Z,77.7
2017-10-09T01:04:34.027Z,78.17
2017-10-09T01:05:34.048Z,78.17
2017-10-09T01:06:34.060Z,77.32
2017-10-09T01:07:33.808Z,77.51
2017-10-09T01:08:33.766Z,77.89
2017-10-09T01:09:33.778Z,77.42
2017-10-09T01:10:33.796Z,77.8
2017-10-09T01:11:33.811Z,78.27
2017-10-09T01:12:33.826Z,78.27
2017-10-09T01:13:33.842Z,78.17
2017-10-09T01:14:33.857Z,78.17
2017-10-09T01:15:34.197Z,78.17
2017-10-09T01:16:33.890Z,77.7
2017-10-09T01:17:34.225Z,78.08
2017-10-09T01:18:33.919Z,77.98
2017-10-09T01:19:33.934Z,77.89
2017-10-09T01:20:34.275Z,77.8
2017-10-09T01:21:34.292Z,77.61
2017-10-09T01:22:34.304Z,77.61
2017-10-09T01:23:34.317Z,78.08
2017-10-09T01:24:34.010Z,77.89
2017-10-09T01:25:34.026Z,77.98
2017-10-09T01:26:34.366Z,77.7
2017-10-09T01:27:34.379Z,78.08
2017-10-09T01:28:34.070Z,78.08
2017-10-09T01:29:34.088Z,78.27
2017-10-09T01:30:34.102Z,77.98
2017-10-09T01:31:34.116Z,78.08
2017-10-09T01:32:34.454Z,78.17
2017-10-09T01:33:34.469Z,78.37
2017-10-09T01:34:34.489Z,78.08
2017-10-09T01:35:34.501Z,77.89
2017-10-09T01:36:34.521Z,78.37
2017-10-09T01:37:34.529Z,78.17
2017-10-09T01:38:34.225Z,78.37
2017-10-09T01:39:34.566Z,77.89
2017-10-09T01:40:34.256Z,78.27
2017-10-09T01:41:34.595Z,78.65
2017-10-09T01:42:34.614Z,78.27
2017-10-09T01:43:34.301Z,78.27
2017-10-09T01:44:34.319Z,78.46
2017-10-09T01:45:34.654Z,78.37
2017-10-09T01:46:34.348Z,78.27
2017-10-09T01:47:34.684Z,78.37
2017-10-09T01:48:34.377Z,78.56
2017-10-09T01:49:34.716Z,78.17
2017-10-09T01:50:34.728Z,78.37
2017-10-09T01:51:34.749Z,78.46
2017-10-09T01:52:34.440Z,78.17
2017-10-09T01:53:34.453Z,78.27
2017-10-09T01:54:34.470Z,78.17
2017-10-09T01:55:34.809Z,78.37
2017-10-09T01:56:34.503Z,78.17
2017-10-09T01:57:34.514Z,78.27
2017-10-09T01:58:34.852Z,78.17
2017-10-09T01:59:34.868Z,78.46
2017-10-09T02:00:34.885Z,78.75
2017-10-09T02:01:34.898Z,78.17
2017-10-09T02:02:34.915Z,78.08
2017-10-09T02:03:34.608Z,78.27
2017-10-09T02:04:34.621Z,78.17
2017-10-09T02:05:34.959Z,78.17
2017-10-09T02:06:34.975Z,78.46
2017-10-09T02:07:34.667Z,78.46
2017-10-09T02:08:34.684Z,78.46
2017-10-09T02:09:34.697Z,78.46
2017-10-09T02:10:34.714Z,78.46
2017-10-09T02:11:35.054Z,78.65
2017-10-09T02:12:35.066Z,78.37
2017-10-09T02:13:34.758Z,78.65
2017-10-09T02:14:35.096Z,78.27
2017-10-09T02:15:34.794Z,78.56
2017-10-09T02:16:34.803Z,78.37
2017-10-09T02:17:35.145Z,78.27
2017-10-09T02:18:35.158Z,78.56
2017-10-09T02:19:35.173Z,78.46
2017-10-09T02:20:35.196Z,78.27
2017-10-09T02:21:35.202Z,78.46
2017-10-09T02:22:35.217Z,78.46
2017-10-09T02:23:35.232Z,78.27
2017-10-09T02:24:35.249Z,78.27
2017-10-09T02:25:34.941Z,78.46
2017-10-09T02:26:35.277Z,78.56
2017-10-09T02:27:34.970Z,78.37
2017-10-09T02:28:35.309Z,78.27
2017-10-09T02:29:35.005Z,78.46
2017-10-09T02:30:35.337Z,78.46
2017-10-09T02:31:35.358Z,78.27
2017-10-09T02:32:35.048Z,78.37
2017-10-09T02:33:35.061Z,78.27
2017-10-09T02:34:35.401Z,78.56
2017-10-09T02:35:35.094Z,78.27
2017-10-09T02:36:35.437Z,78.56
2017-10-09T02:37:35.123Z,78.27
2017-10-09T02:38:35.459Z,78.23
2017-10-09T02:39:35.154Z,78.65
2017-10-09T02:40:35.493Z,78.8
2017-10-09T02:41:35.508Z,78.33
2017-10-09T02:42:35.198Z,78.42
2017-10-09T02:43:35.533Z,78.27
2017-10-09T02:44:35.232Z,78.46
2017-10-09T02:45:35.565Z,78.46
2017-10-09T02:46:35.583Z,78.61
2017-10-09T02:47:35.596Z,78.27
2017-10-09T02:48:35.288Z,78.23
2017-10-09T02:49:35.625Z,78.65
2017-10-09T02:50:35.320Z,78.52
2017-10-09T02:51:35.335Z,78.52
2017-10-09T02:52:35.673Z,78.37
2017-10-09T02:53:35.687Z,78.23
2017-10-09T02:54:35.379Z,78.33
2017-10-09T02:55:35.393Z,78.61
2017-10-09T02:56:35.408Z,78.61
2017-10-09T02:57:35.428Z,78.42
2017-10-09T02:58:35.439Z,78.33
2017-10-09T02:59:35.454Z,79.09
2017-10-09T03:00:35.468Z,78.42
2017-10-09T03:01:35.809Z,78.33
2017-10-09T03:02:35.498Z,78.42
2017-10-09T03:03:35.512Z,78.33
2017-10-09T03:04:35.527Z,78.52
2017-10-09T03:05:35.869Z,78.71
2017-10-09T03:06:35.558Z,78.71
2017-10-09T03:07:35.572Z,78.61
2017-10-09T03:08:35.911Z,78.23
2017-10-09T03:09:35.604Z,78.61
2017-10-09T03:10:35.618Z,78.52
2017-10-09T03:11:35.958Z,78.42
2017-10-09T03:12:35.974Z,78.23
2017-10-09T03:13:35.987Z,78.61
2017-10-09T03:14:36.002Z,78.23
2017-10-09T03:15:36.018Z,78.52
2017-10-09T03:16:35.710Z,78.52
2017-10-09T03:17:35.725Z,78.61
2017-10-09T03:18:36.062Z,78.61
2017-10-09T03:19:36.079Z,78.42
2017-10-09T03:20:35.769Z,78.42
2017-10-09T03:21:35.783Z,78.52
2017-10-09T03:22:35.799Z,78.14
2017-10-09T03:23:36.138Z,78.23
2017-10-09T03:24:35.830Z,78.61
2017-10-09T03:25:36.167Z,78.33
2017-10-09T03:26:35.858Z,78.42
2017-10-09T03:27:36.196Z,78.52
2017-10-09T03:28:35.889Z,78.71
2017-10-09T03:29:36.227Z,78.61
2017-10-09T03:30:36.243Z,78.52
2017-10-09T03:31:35.935Z,78.71
2017-10-09T03:32:35.947Z,78.42
2017-10-09T03:33:36.287Z,78.42
2017-10-09T03:34:35.978Z,78.23
2017-10-09T03:35:35.992Z,78.61
2017-10-09T03:36:36.329Z,78.52
2017-10-09T03:37:36.024Z,78.33
2017-10-09T03:38:36.039Z,78.42
2017-10-09T03:39:36.375Z,78.61
2017-10-09T03:40:36.068Z,78.23
2017-10-09T03:41:36.084Z,78.8
2017-10-09T03:42:36.423Z,78.14
2017-10-09T03:43:36.112Z,78.52
2017-10-09T03:44:36.127Z,78.33
2017-10-09T03:45:36.464Z,78.14
2017-10-09T03:46:36.482Z,78.61
2017-10-09T03:47:36.169Z,78.61
2017-10-09T03:48:36.509Z,78.33
2017-10-09T03:49:36.524Z,78.42
2017-10-09T03:50:36.216Z,78.33
2017-10-09T03:51:36.232Z,78.33
2017-10-09T03:52:36.569Z,78.33
2017-10-09T03:53:36.585Z,78.04
2017-10-09T03:54:36.276Z,78.42
2017-10-09T03:55:36.618Z,78.33
2017-10-09T03:56:36.306Z,78.33
2017-10-09T03:57:36.644Z,78.52
2017-10-09T03:58:36.657Z,78.99
2017-10-09T03:59:36.673Z,78.71
2017-10-09T04:00:36.363Z,78.42
2017-10-09T04:01:36.706Z,78.99
2017-10-09T04:02:36.714Z,78.52
2017-10-09T04:03:36.408Z,78.42
2017-10-09T04:04:36.749Z,78.99
2017-10-09T04:05:36.759Z,78.52
2017-10-09T04:06:36.775Z,78.8
2017-10-09T04:07:36.468Z,78.8
2017-10-09T04:08:36.806Z,78.71
2017-10-09T04:09:36.819Z,78.9
2017-10-09T04:10:36.835Z,78.23
2017-10-09T04:11:36.530Z,78.61
2017-10-09T04:12:36.865Z,78.14
2017-10-09T04:13:36.881Z,78.71
2017-10-09T04:14:36.896Z,78.52
2017-10-09T04:15:36.907Z,78.99
2017-10-09T04:16:36.603Z,78.04
2017-10-09T04:17:36.618Z,78.71
2017-10-09T04:18:36.631Z,78.71
2017-10-09T04:19:36.645Z,78.9
2017-10-09T04:20:36.658Z,78.71
2017-10-09T04:21:36.997Z,78.23
2017-10-09T04:22:37.012Z,78.42
2017-10-09T04:23:37.025Z,78.33
2017-10-09T04:24:36.724Z,78.52
2017-10-09T04:25:36.741Z,78.33
2017-10-09T04:26:37.073Z,78.61
2017-10-09T04:27:37.086Z,78.61
2017-10-09T04:28:37.101Z,78.52
2017-10-09T04:29:36.793Z,78.52
2017-10-09T04:30:37.126Z,78.8
2017-10-09T04:31:37.144Z,78.71
2017-10-09T04:32:36.836Z,78.42
2017-10-09T04:33:37.175Z,78.71
2017-10-09T04:34:36.864Z,78.42
2017-10-09T04:35:36.883Z,78.42
2017-10-09T04:36:36.896Z,78.71
2017-10-09T04:37:36.909Z,78.33
2017-10-09T04:38:37.247Z,78.61
2017-10-09T04:39:37.263Z,78.52
2017-10-09T04:40:37.277Z,78.42
2017-10-09T04:41:36.967Z,78.61
2017-10-09T04:42:36.982Z,78.9
2017-10-09T04:43:36.999Z,78.52
2017-10-09T04:44:37.010Z,78.61
2017-10-09T04:45:37.349Z,78.9
2017-10-09T04:46:37.363Z,79.28
2017-10-09T04:47:37.055Z,78.71
2017-10-09T04:48:37.071Z,78.8
2017-10-09T04:49:37.408Z,78.8
2017-10-09T04:50:37.424Z,79.09
2017-10-09T04:51:37.113Z,79.19
2017-10-09T04:52:37.127Z,78.8
2017-10-09T04:53:37.467Z,79.38
2017-10-09T04:54:37.480Z,79.09
2017-10-09T04:55:37.176Z,79.19
2017-10-09T04:56:37.187Z,78.9
2017-10-09T04:57:37.523Z,79.38
2017-10-09T04:58:37.219Z,78.99
2017-10-09T04:59:37.554Z,78.99
2017-10-09T05:00:37.245Z,78.99
2017-10-09T05:01:37.262Z,79.09
2017-10-09T05:02:37.279Z,79.19
2017-10-09T05:03:37.289Z,79.19
2017-10-09T05:04:37.306Z,79.09
2017-10-09T05:05:37.643Z,79.09
2017-10-09T05:06:37.335Z,79.09
2017-10-09T05:07:37.349Z,79.28
2017-10-09T05:08:37.686Z,79.47
2017-10-09T05:09:37.715Z,78.99
2017-10-09T05:10:37.715Z,79.66
2017-10-09T05:11:37.730Z,78.8
2017-10-09T05:12:37.743Z,79.57
2017-10-09T05:13:37.437Z,79.75
2017-10-09T05:14:37.452Z,79.09
2017-10-09T05:15:37.787Z,79.57
2017-10-09T05:16:37.804Z,79.47
2017-10-09T05:17:37.818Z,79.57
2017-10-09T05:18:37.510Z,79.09
2017-10-09T05:19:37.847Z,79.19
2017-10-09T05:20:37.862Z,78.99
2017-10-09T05:21:37.554Z,79.28
2017-10-09T05:22:37.567Z,78.9
2017-10-09T05:23:37.954Z,78.99
2017-10-09T05:24:37.920Z,78.99
2017-10-09T05:25:37.612Z,79.19
2017-10-09T05:26:37.957Z,78.99
2017-10-09T05:27:37.639Z,79.19
2017-10-09T05:28:37.655Z,78.71
2017-10-09T05:29:37.992Z,79.47
2017-10-09T05:30:37.696Z,78.99
2017-10-09T05:31:38.022Z,79.09
2017-10-09T05:32:38.042Z,79.66
2017-10-09T05:33:37.728Z,78.99
2017-10-09T05:34:38.064Z,79.09
2017-10-09T05:35:38.080Z,79.19
2017-10-09T05:36:38.092Z,79.28
2017-10-09T05:37:38.109Z,79.38
2017-10-09T05:38:38.123Z,79.38
2017-10-09T05:39:38.138Z,78.9
2017-10-09T05:40:38.151Z,79.75
2017-10-09T05:41:38.167Z,78.99
2017-10-09T05:42:37.859Z,79.09
2017-10-09T05:43:38.197Z,79.19
2017-10-09T05:44:38.213Z,79.19
2017-10-09T05:45:38.275Z,79.38
2017-10-09T05:46:38.241Z,79.47
2017-10-09T05:47:38.454Z,79.47
2017-10-09T05:48:37.947Z,79.57
2017-10-09T05:49:37.982Z,79.85
2017-10-09T05:50:37.977Z,79.47
2017-10-09T05:51:38.006Z,79.57
2017-10-09T05:52:38.329Z,79.66
2017-10-09T05:53:38.352Z,79.66
2017-10-09T05:54:38.357Z,79.57
2017-10-09T05:55:38.374Z,79.47
2017-10-09T05:56:38.064Z,79.75
2017-10-09T05:57:38.079Z,79.75
2017-10-09T05:58:38.093Z,79.57
2017-10-09T05:59:38.108Z,79.57
2017-10-09T06:00:38.449Z,79.94
2017-10-09T06:01:38.459Z,80.13
2017-10-09T06:02:38.152Z,80.23
2017-10-09T06:03:38.489Z,80.04
2017-10-09T06:04:38.503Z,80.23
2017-10-09T06:05:38.518Z,80.13
2017-10-09T06:06:38.533Z,80.33
2017-10-09T06:07:38.561Z,80.33
2017-10-09T06:08:38.241Z,79.85
2017-10-09T06:09:38.577Z,80.04
2017-10-09T06:10:38.268Z,79.94
2017-10-09T06:11:38.608Z,79.85
2017-10-09T06:12:38.621Z,80.13
2017-10-09T06:13:38.636Z,80.13
2017-10-09T06:14:38.328Z,79.66
2017-10-09T06:15:38.715Z,79.66
2017-10-09T06:16:38.679Z,79.57
2017-10-09T06:17:38.697Z,79.75
2017-10-09T06:18:38.751Z,80.13
2017-10-09T06:19:38.403Z,80.04
2017-10-09T06:20:38.739Z,79.75
2017-10-09T06:21:38.430Z,79.99
2017-10-09T06:22:38.768Z,80.08
2017-10-09T06:23:38.463Z,80.08
2017-10-09T06:24:38.476Z,80.08
2017-10-09T06:25:38.489Z,79.89
2017-10-09T06:26:38.506Z,79.66
2017-10-09T06:27:38.839Z,80.18
2017-10-09T06:28:38.533Z,80.18
2017-10-09T06:29:38.880Z,80.65
2017-10-09T06:30:38.887Z,80.65
2017-10-09T06:31:38.578Z,80.75
2017-10-09T06:32:38.917Z,80.65
2017-10-09T06:33:38.935Z,80.46
2017-10-09T06:34:38.946Z,80.65
2017-10-09T06:35:38.960Z,80.55
2017-10-09T06:36:38.975Z,80.94
2017-10-09T06:37:38.677Z,80.46
2017-10-09T06:38:39.004Z,80.46
2017-10-09T06:39:38.698Z,80.46
2017-10-09T06:40:39.033Z,80.46
2017-10-09T06:41:38.731Z,80.75
2017-10-09T06:42:38.743Z,80.46
2017-10-09T06:43:39.076Z,80.65
2017-10-09T06:44:39.097Z,80.75
2017-10-09T06:45:39.108Z,80.55
2017-10-09T06:46:39.122Z,80.55
2017-10-09T06:47:39.140Z,80.65
2017-10-09T06:48:38.832Z,80.65
2017-10-09T06:49:39.172Z,80.75
2017-10-09T06:50:38.861Z,80.75
2017-10-09T06:51:39.199Z,80.65
2017-10-09T06:52:38.893Z,80.55
2017-10-09T06:53:38.910Z,80.55
2017-10-09T06:54:39.243Z,80.65
2017-10-09T06:55:38.936Z,80.46
2017-10-09T06:56:38.950Z,80.75
2017-10-09T06:57:39.289Z,80.5
2017-10-09T06:58:39.304Z,80.84
2017-10-09T06:59:39.318Z,80.79
2017-10-09T07:00:39.333Z,80.79
2017-10-09T07:01:39.351Z,80.88
2017-10-09T07:02:39.043Z,80.69
2017-10-09T07:03:39.059Z,80.79
2017-10-09T07:04:39.395Z,80.88
2017-10-09T07:05:39.086Z,80.88
2017-10-09T07:06:39.424Z,80.79
2017-10-09T07:07:39.440Z,80.88
2017-10-09T07:08:39.458Z,80.5
2017-10-09T07:09:39.470Z,80.88
2017-10-09T07:10:39.161Z,80.88
2017-10-09T07:11:39.502Z,80.6
2017-10-09T07:12:39.519Z,80.79
2017-10-09T07:13:39.210Z,80.79
2017-10-09T07:14:39.224Z,80.79
2017-10-09T07:15:39.564Z,80.6
2017-10-09T07:16:39.575Z,80.69
2017-10-09T07:17:39.269Z,80.79
2017-10-09T07:18:39.607Z,80.69
2017-10-09T07:19:39.299Z,80.69
2017-10-09T07:20:39.315Z,80.5
2017-10-09T07:21:39.654Z,80.69
2017-10-09T07:22:39.347Z,80.69
2017-10-09T07:23:39.361Z,80.5
2017-10-09T07:24:39.697Z,80.69
2017-10-09T07:25:39.715Z,80.22
2017-10-09T07:26:39.729Z,80.22
2017-10-09T07:27:39.754Z,80.12
2017-10-09T07:28:39.435Z,80.41
2017-10-09T07:29:39.451Z,80.31
2017-10-09T07:30:39.473Z,80.79
2017-10-09T07:31:39.805Z,80.88
2017-10-09T07:32:39.497Z,80.5
2017-10-09T07:33:39.834Z,80.88
2017-10-09T07:34:39.852Z,80.5
2017-10-09T07:35:39.869Z,81.17
2017-10-09T07:36:39.879Z,80.69
2017-10-09T07:37:39.575Z,79.83
2017-10-09T07:38:39.587Z,80.07
2017-10-09T07:39:39.929Z,80.16
2017-10-09T07:40:39.969Z,80.44
2017-10-09T07:41:39.636Z,80.26
2017-10-09T07:42:39.973Z,80.35
2017-10-09T07:43:39.988Z,79.88
2017-10-09T07:44:39.683Z,79.59
2017-10-09T07:45:39.698Z,79.78
2017-10-09T07:46:40.036Z,79.49
2017-10-09T07:47:39.730Z,79.21
2017-10-09T07:48:40.065Z,79.59
2017-10-09T07:49:40.081Z,79.3
2017-10-09T07:50:39.774Z,79.3
2017-10-09T07:51:39.790Z,79.4
2017-10-09T07:52:40.130Z,79.68
2017-10-09T07:53:40.147Z,79.02
2017-10-09T07:54:40.158Z,78.92
2017-10-09T07:55:40.178Z,79.25
2017-10-09T07:56:39.869Z,79.06
2017-10-09T07:57:39.885Z,79.21
2017-10-09T07:58:39.919Z,79.02
2017-10-09T07:59:39.917Z,79.15
2017-10-09T08:00:40.254Z,78.67
2017-10-09T08:01:40.275Z,79.06
2017-10-09T08:02:39.964Z,78.58
2017-10-09T08:03:39.980Z,79.06
2017-10-09T08:04:39.996Z,78.86
2017-10-09T08:05:40.335Z,78.96
2017-10-09T08:06:40.350Z,78.67
2017-10-09T08:07:40.043Z,78.77
2017-10-09T08:08:40.381Z,78.86
2017-10-09T08:09:40.079Z,78.86
2017-10-09T08:10:40.090Z,78.86
2017-10-09T08:11:40.434Z,78.49
2017-10-09T08:12:40.121Z,78.39
2017-10-09T08:13:40.458Z,78.58
2017-10-09T08:14:40.152Z,78.67
2017-10-09T08:15:40.168Z,78.77
2017-10-09T08:16:40.193Z,78.39
2017-10-09T08:17:40.220Z,78.49
2017-10-09T08:18:40.228Z,78.58
2017-10-09T08:19:40.558Z,78.39
2017-10-09T08:20:40.575Z,78.58
2017-10-09T08:21:40.262Z,78.3
2017-10-09T08:22:40.605Z,78.39
2017-10-09T08:23:40.312Z,78.39
2017-10-09T08:24:40.636Z,78.58
2017-10-09T08:25:40.649Z,78.3
2017-10-09T08:26:40.665Z,77.86
2017-10-09T08:27:40.682Z,78.14
2017-10-09T08:28:40.377Z,78.23
2017-10-09T08:29:40.714Z,78.33
2017-10-09T08:30:40.730Z,78.14
2017-10-09T08:31:40.422Z,77.76
2017-10-09T08:32:40.438Z,77.95
2017-10-09T08:33:40.779Z,78.05
2017-10-09T08:34:40.473Z,77.95
2017-10-09T08:35:40.808Z,78.05
2017-10-09T08:36:40.824Z,77.76
2017-10-09T08:37:40.518Z,77.86
2017-10-09T08:38:40.857Z,77.76
2017-10-09T08:39:40.875Z,77.47
2017-10-09T08:40:40.888Z,77.38
2017-10-09T08:41:40.907Z,77.67
2017-10-09T08:42:40.601Z,77.57
2017-10-09T08:43:40.938Z,78.05
2017-10-09T08:44:40.956Z,77.47
2017-10-09T08:45:40.647Z,77.19
2017-10-09T08:46:40.672Z,77.57
2017-10-09T08:47:41.006Z,77
2017-10-09T08:48:40.698Z,76.9
2017-10-09T08:49:41.036Z,76.9
2017-10-09T08:50:41.053Z,77
2017-10-09T08:51:41.068Z,77.03
2017-10-09T08:52:41.087Z,77.23
2017-10-09T08:53:40.780Z,77.42
2017-10-09T08:54:41.118Z,76.75
2017-10-09T08:55:40.813Z,76.75
2017-10-09T08:56:41.150Z,76.75
2017-10-09T08:57:40.845Z,76.75
2017-10-09T08:58:41.182Z,76.75
2017-10-09T08:59:40.879Z,76.46
2017-10-09T09:00:40.894Z,76.46
2017-10-09T09:01:41.236Z,75.98
2017-10-09T09:02:40.928Z,75.7
2017-10-09T09:03:41.270Z,75.6
2017-10-09T09:04:41.282Z,75.42
2017-10-09T09:05:41.301Z,75.7
2017-10-09T09:06:41.316Z,75.51
2017-10-09T09:07:41.011Z,75.6
2017-10-09T09:08:41.352Z,75.64
2017-10-09T09:09:41.042Z,75.6
2017-10-09T09:10:41.062Z,75.6
2017-10-09T09:11:41.077Z,75.6
2017-10-09T09:12:41.415Z,75.32
2017-10-09T09:13:41.430Z,75.51
2017-10-09T09:14:41.126Z,75.6
2017-10-09T09:15:41.489Z,75.45
2017-10-09T09:16:41.165Z,74.78
2017-10-09T09:17:41.498Z,74.93
2017-10-09T09:18:41.193Z,74.98
2017-10-09T09:19:41.533Z,75.26
2017-10-09T09:20:41.226Z,74.49
2017-10-09T09:21:41.576Z,74.69
2017-10-09T09:22:41.581Z,74.98
2017-10-09T09:23:41.598Z,75.07
2017-10-09T09:24:41.615Z,75.07
2017-10-09T09:25:41.310Z,74.98
2017-10-09T09:26:41.650Z,74.88
2017-10-09T09:27:41.667Z,73.92
2017-10-09T09:28:41.364Z,74.59
2017-10-09T09:29:41.706Z,74.3
2017-10-09T09:30:41.717Z,74.3
2017-10-09T09:31:41.412Z,74.4
2017-10-09T09:32:41.753Z,74.34
2017-10-09T09:33:41.448Z,74.15
2017-10-09T09:34:41.463Z,73.96
2017-10-09T09:35:41.481Z,73.67
2017-10-09T09:36:41.821Z,73.67
2017-10-09T09:37:41.517Z,73.39
2017-10-09T09:38:41.854Z,74.05
2017-10-09T09:39:41.873Z,73.77
2017-10-09T09:40:41.889Z,73.29
2017-10-09T09:41:41.907Z,73.29
2017-10-09T09:42:41.603Z,73.48
2017-10-09T09:43:41.941Z,73.39
2017-10-09T09:44:41.957Z,73.39
2017-10-09T09:45:41.653Z,73.39
2017-10-09T09:46:41.671Z,73.39
2017-10-09T09:47:41.688Z,73.29
2017-10-09T09:48:41.704Z,73.39
2017-10-09T09:49:42.045Z,73
2017-10-09T09:50:42.063Z,73.29
2017-10-09T09:51:41.756Z,73.19
2017-10-09T09:52:41.776Z,73.1
2017-10-09T09:53:41.791Z,73.1
2017-10-09T09:54:41.808Z,73.19
2017-10-09T09:55:41.823Z,73
2017-10-09T09:56:41.842Z,73.33
2017-10-09T09:57:42.185Z,73.14
2017-10-09T09:58:42.201Z,72.66
2017-10-09T09:59:42.218Z,72.94
2017-10-09T10:00:41.913Z,72.85
2017-10-09T10:01:41.929Z,72.94
2017-10-09T10:02:42.269Z,72.75
2017-10-09T10:03:42.289Z,72.66
2017-10-09T10:04:41.981Z,72.94
2017-10-09T10:05:41.999Z,72.47
2017-10-09T10:06:42.018Z,72.56
2017-10-09T10:07:42.033Z,72.75
2017-10-09T10:08:42.051Z,72.08
2017-10-09T10:09:42.070Z,71.7
2017-10-09T10:10:42.410Z,72.08
2017-10-09T10:11:42.103Z,71.89
2017-10-09T10:12:42.158Z,71.89
2017-10-09T10:13:42.139Z,72.08
2017-10-09T10:14:42.479Z,71.89
2017-10-09T10:15:42.495Z,71.8
2017-10-09T10:16:42.515Z,71.32
2017-10-09T10:17:42.531Z,71.51
2017-10-09T10:18:42.551Z,70.94
2017-10-09T10:19:42.244Z,71.22
2017-10-09T10:20:42.262Z,70.46
2017-10-09T10:21:42.601Z,70.65
2017-10-09T10:22:42.620Z,70.17
2017-10-09T10:23:42.315Z,70.75
2017-10-09T10:24:42.331Z,70.65
2017-10-09T10:25:42.348Z,70.65
2017-10-09T10:26:42.367Z,69.89
2017-10-09T10:27:42.387Z,69.89
2017-10-09T10:28:42.724Z,70.68
2017-10-09T10:29:42.419Z,70.46
2017-10-09T10:30:42.762Z,70.4
2017-10-09T10:31:42.458Z,69.92
2017-10-09T10:32:42.473Z,69.92
2017-10-09T10:33:42.819Z,69.54
2017-10-09T10:34:42.509Z,69.92
2017-10-09T10:35:42.528Z,69.35
2017-10-09T10:36:42.543Z,69.06
2017-10-09T10:37:42.890Z,69.64
2017-10-09T10:38:42.904Z,69.73
2017-10-09T10:39:42.927Z,69.44
2017-10-09T10:40:42.615Z,68.87
2017-10-09T10:41:42.959Z,68.77
2017-10-09T10:42:42.976Z,69.54
2017-10-09T10:43:42.997Z,69.54
2017-10-09T10:44:42.690Z,69.35
2017-10-09T10:45:42.707Z,69.44
2017-10-09T10:46:42.721Z,69.35
2017-10-09T10:47:42.741Z,68.58
2017-10-09T10:48:43.089Z,68.33
2017-10-09T10:49:43.104Z,68.13
2017-10-09T10:50:43.118Z,67.66
2017-10-09T10:51:43.134Z,67.56
2017-10-09T10:52:42.831Z,67.18
2017-10-09T10:53:42.849Z,67.08
2017-10-09T10:54:43.188Z,67.18
2017-10-09T10:55:42.888Z,66.61
2017-10-09T10:56:43.228Z,66.8
2017-10-09T10:57:43.245Z,67.08
2017-10-09T10:58:42.941Z,66.41
2017-10-09T10:59:43.286Z,66.22
2017-10-09T11:00:42.977Z,66.22
2017-10-09T11:01:42.995Z,66.22
2017-10-09T11:02:43.014Z,66.13
2017-10-09T11:03:43.355Z,66.35
2017-10-09T11:04:43.371Z,66.06
2017-10-09T11:05:43.390Z,66.16
2017-10-09T11:06:43.410Z,65.88
2017-10-09T11:07:43.429Z,65.88
2017-10-09T11:08:43.122Z,65.58
2017-10-09T11:09:43.143Z,65.11
2017-10-09T11:10:43.483Z,64.53
2017-10-09T11:11:43.500Z,64.53
2017-10-09T11:12:43.197Z,64.34
2017-10-09T11:13:43.540Z,63.96
2017-10-09T11:14:43.238Z,64.53
2017-10-09T11:15:43.577Z,64.25
2017-10-09T11:16:43.271Z,64.15
2017-10-09T11:17:43.292Z,63.67
2017-10-09T11:18:43.633Z,63.48
2017-10-09T11:19:43.326Z,63.76
2017-10-09T11:20:43.346Z,63.76
2017-10-09T11:21:43.366Z,63.39
2017-10-09T11:22:43.383Z,62.81
2017-10-09T11:23:43.726Z,62.74
2017-10-09T11:24:43.420Z,62.74
2017-10-09T11:25:43.762Z,62.07
2017-10-09T11:26:43.791Z,61.79
2017-10-09T11:27:43.803Z,61.21
2017-10-09T11:28:43.826Z,61.02
2017-10-09T11:29:43.838Z,61.11
2017-10-09T11:30:43.858Z,60.41
2017-10-09T11:31:43.876Z,60.44
2017-10-09T11:32:43.895Z,60.06
2017-10-09T11:33:43.910Z,60.16
2017-10-09T11:34:43.929Z,60.25
2017-10-09T11:35:43.949Z,60.25
2017-10-09T11:36:43.644Z,60.16
2017-10-09T11:37:43.665Z,60.16
2017-10-09T11:38:43.684Z,60.25
2017-10-09T11:39:43.702Z,60.25
2017-10-09T11:40:43.722Z,59.87
2017-10-09T11:41:44.065Z,59.87
2017-10-09T11:42:44.087Z,59.68
2017-10-09T11:43:43.789Z,59.48
2017-10-09T11:44:43.798Z,59.87
2017-10-09T11:45:44.141Z,59.77
2017-10-09T11:46:44.157Z,59.48
2017-10-09T11:47:44.176Z,59.3
2017-10-09T11:48:44.198Z,59.11
2017-10-09T11:49:44.212Z,59.11
2017-10-09T11:50:44.234Z,59.2
2017-10-09T11:51:43.929Z,59.2
2017-10-09T11:52:43.950Z,59.23
2017-10-09T11:53:44.289Z,59.39
2017-10-09T11:54:44.312Z,59.97
2017-10-09T11:55:44.008Z,60.28
2017-10-09T11:56:44.025Z,60.28
2017-10-09T11:57:44.368Z,60.57
2017-10-09T11:58:44.063Z,60.09
2017-10-09T11:59:44.082Z,60.47
2017-10-09T12:00:44.424Z,60.38
2017-10-09T12:01:44.445Z,60.57
2017-10-09T12:02:44.461Z,60.38
2017-10-09T12:03:44.482Z,60.19
2017-10-09T12:04:44.499Z,59.9
2017-10-09T12:05:44.196Z,60
2017-10-09T12:06:44.538Z,59.23
2017-10-09T12:07:44.560Z,59.52
2017-10-09T12:08:44.254Z,59.23
2017-10-09T12:09:44.592Z,59.61
2017-10-09T12:10:44.293Z,59.52
2017-10-09T12:11:44.311Z,59.52
2017-10-09T12:12:44.331Z,58.08
2017-10-09T12:13:44.348Z,57.79
2017-10-09T12:14:44.692Z,57.5
2017-10-09T12:15:44.713Z,57.41
2017-10-09T12:16:44.411Z,57.12
2017-10-09T12:17:44.749Z,57.41
2017-10-09T12:18:44.766Z,57.6
2017-10-09T12:19:44.464Z,57.31
2017-10-09T12:20:44.810Z,57.5
2017-10-09T12:21:44.528Z,57.89
2017-10-09T12:22:44.848Z,57.6
2017-10-09T12:23:44.862Z,57.41
2017-10-09T12:24:44.883Z,57.41
2017-10-09T12:25:44.902Z,57.5
2017-10-09T12:26:44.922Z,57.12
2017-10-09T12:27:44.622Z,57.21
2017-10-09T12:28:44.637Z,56.54
2017-10-09T12:29:44.656Z,56.74
2017-10-09T12:30:45.012Z,55.68
2017-10-09T12:31:45.019Z,55.58
2017-10-09T12:32:44.716Z,55.68
2017-10-09T12:33:44.736Z,55.78
2017-10-09T12:34:45.080Z,54.53
2017-10-09T12:35:44.772Z,54.05
2017-10-09T12:36:45.114Z,53.67
2017-10-09T12:37:44.813Z,53.48
2017-10-09T12:38:44.833Z,52.62
2017-10-09T12:39:45.174Z,53.58
2017-10-09T12:40:45.193Z,53.48
2017-10-09T12:41:45.214Z,54.15
2017-10-09T12:42:44.909Z,54.05
2017-10-09T12:43:45.252Z,54.05
2017-10-09T12:44:44.949Z,53.96
2017-10-09T12:45:45.293Z,53.77
2017-10-09T12:46:45.313Z,53.48
2017-10-09T12:47:45.007Z,53.96
2017-10-09T12:48:45.348Z,54.15
2017-10-09T12:49:45.048Z,55.21
2017-10-09T12:50:45.066Z,55.68
2017-10-09T12:51:45.412Z,55.78
2017-10-09T12:52:45.106Z,54.91
2017-10-09T12:53:45.125Z,55.68
2017-10-09T12:54:45.472Z,55.4
2017-10-09T12:55:45.486Z,55.68